createdAt,value
2022-08-20T00:02:15.041Z,100302.80
2022-08-20T00:04:44.040Z,100308.60
2022-08-20T00:07:15.068Z,100307.80
2022-08-20T00:09:44.276Z,100302.40
2022-08-20T00:12:17.736Z,100301.40
2022-08-20T00:14:45.694Z,100301.00
2022-08-20T00:17:13.910Z,100306.00
2022-08-20T00:19:41.851Z,100299.80
2022-08-20T00:22:09.714Z,100306.60
2022-08-20T00:24:37.712Z,100311.20
2022-08-20T00:27:05.553Z,100305.60
2022-08-20T00:29:33.559Z,100308.20
2022-08-20T00:32:01.325Z,100311.40
2022-08-20T00:34:29.295Z,100314.20
2022-08-20T00:36:57.267Z,100311.40
2022-08-20T00:39:24.913Z,100316.40
2022-08-20T00:41:52.856Z,100316.20
2022-08-20T00:44:22.772Z,100314.40
2022-08-20T00:46:52.387Z,100306.80
2022-08-20T00:49:30.350Z,100303.20
2022-08-20T00:52:17.664Z,100294.00
2022-08-20T00:54:54.343Z,100286.00
2022-08-20T00:57:59.858Z,100282.80
2022-08-20T01:00:46.321Z,100279.60
2022-08-20T01:03:20.393Z,100272.00
2022-08-20T01:05:51.019Z,100273.80
2022-08-20T01:08:24.644Z,100274.40
2022-08-20T01:11:08.274Z,100265.40
2022-08-20T01:13:38.849Z,100263.20
2022-08-20T01:16:31.367Z,100262.00
2022-08-20T01:19:01.115Z,100249.00
2022-08-20T01:21:31.615Z,100235.60
2022-08-20T01:24:10.934Z,100232.00
2022-08-20T01:26:44.537Z,100231.20
2022-08-20T01:29:22.754Z,100223.00
2022-08-20T01:31:50.727Z,100222.20
2022-08-20T01:34:21.047Z,100223.40
2022-08-20T01:36:53.041Z,100226.60
2022-08-20T01:39:28.883Z,100218.80
2022-08-20T01:42:34.851Z,100218.00
2022-08-20T01:45:04.429Z,100207.60
2022-08-20T01:47:38.486Z,100199.80
2022-08-20T01:50:21.664Z,100199.00
2022-08-20T01:53:10.828Z,100196.00
2022-08-20T01:55:39.297Z,100192.20
2022-08-20T01:58:07.085Z,100187.80
2022-08-20T02:00:35.970Z,100188.20
2022-08-20T02:03:04.567Z,100189.60
2022-08-20T02:05:33.821Z,100184.00
2022-08-20T02:08:02.644Z,100179.40
2022-08-20T02:10:31.849Z,100176.60
2022-08-20T02:13:01.248Z,100182.20
2022-08-20T02:15:34.670Z,100183.60
2022-08-20T02:18:08.022Z,100184.00
2022-08-20T02:20:37.202Z,100184.60
2022-08-20T02:23:07.906Z,100180.80
2022-08-20T02:25:40.209Z,100183.80
2022-08-20T02:28:15.438Z,100189.80
2022-08-20T02:30:48.117Z,100209.00
2022-08-20T02:33:18.705Z,100233.80
2022-08-20T02:35:49.511Z,100234.80
2022-08-20T02:38:17.537Z,100233.40
2022-08-20T02:40:46.515Z,100232.00
2022-08-20T02:43:14.555Z,100230.80
2022-08-20T02:45:44.161Z,100236.40
2022-08-20T02:48:20.767Z,100237.40
2022-08-20T02:50:55.360Z,100235.80
2022-08-20T02:53:25.263Z,100229.00
2022-08-20T02:55:53.376Z,100216.80
2022-08-20T02:58:23.572Z,100223.00
2022-08-20T03:00:51.756Z,100226.00
2022-08-20T03:03:22.555Z,100206.00
2022-08-20T03:05:54.527Z,100200.00
2022-08-20T03:08:23.739Z,100195.40
2022-08-20T03:10:52.300Z,100187.60
2022-08-20T03:13:21.712Z,100191.00
2022-08-20T03:15:58.985Z,100184.80
2022-08-20T03:18:41.700Z,100184.40
2022-08-20T03:21:11.429Z,100183.80
2022-08-20T03:23:43.719Z,100184.40
2022-08-20T03:26:13.642Z,100176.40
2022-08-20T03:28:42.281Z,100177.00
2022-08-20T03:31:12.554Z,100172.20
2022-08-20T03:33:52.864Z,100162.40
2022-08-20T03:36:27.981Z,100153.20
2022-08-20T03:38:59.767Z,100146.60
2022-08-20T03:41:28.715Z,100146.20
2022-08-20T03:43:57.431Z,100143.20
2022-08-20T03:46:25.907Z,100143.40
2022-08-20T03:48:59.501Z,100147.40
2022-08-20T03:51:30.716Z,100154.60
2022-08-20T03:53:59.364Z,100163.80
2022-08-20T03:56:29.579Z,100176.80
2022-08-20T03:58:57.753Z,100183.00
2022-08-20T04:01:37.085Z,100183.00
2022-08-20T04:04:14.441Z,100184.40
2022-08-20T04:06:42.884Z,100184.80
2022-08-20T04:09:11.986Z,100185.60
2022-08-20T04:11:42.116Z,100186.20
2022-08-20T04:14:11.468Z,100183.40
2022-08-20T04:16:43.336Z,100185.60
2022-08-20T04:19:11.148Z,100195.40
2022-08-20T04:21:39.677Z,100201.20
2022-08-20T04:24:07.643Z,100203.40
2022-08-20T04:26:50.242Z,100197.80
2022-08-20T04:29:18.033Z,100191.40
2022-08-20T04:31:45.924Z,100186.80
2022-08-20T04:34:13.734Z,100195.00
2022-08-20T04:36:41.497Z,100200.80
2022-08-20T04:39:09.326Z,100204.80
2022-08-20T04:41:37.093Z,100207.80
2022-08-20T04:44:04.885Z,100211.80
2022-08-20T04:46:33.243Z,100213.40
2022-08-20T04:49:03.699Z,100212.20
2022-08-20T04:51:32.576Z,100213.20
2022-08-20T04:54:01.394Z,100210.00
2022-08-20T04:56:38.717Z,100207.40
2022-08-20T04:59:07.529Z,100202.80
2022-08-20T05:01:35.568Z,100198.40
2022-08-20T05:04:03.860Z,100199.20
2022-08-20T05:06:32.707Z,100199.80
2022-08-20T05:09:01.173Z,100199.40
2022-08-20T05:11:35.473Z,100208.00
2022-08-20T05:14:09.604Z,100209.00
2022-08-20T05:16:40.504Z,100212.40
2022-08-20T05:19:12.834Z,100215.20
2022-08-20T05:21:41.258Z,100221.60
2022-08-20T05:24:10.470Z,100218.00
2022-08-20T05:26:38.715Z,100217.20
2022-08-20T05:29:07.542Z,100215.40
2022-08-20T05:31:35.904Z,100212.00
2022-08-20T05:34:11.370Z,100212.00
2022-08-20T05:36:44.323Z,100211.00
2022-08-20T05:39:13.360Z,100204.60
2022-08-20T05:41:41.431Z,100204.80
2022-08-20T05:44:13.339Z,100204.40
2022-08-20T05:46:45.375Z,100206.00
2022-08-20T05:49:20.698Z,100208.00
2022-08-20T05:51:51.350Z,100209.80
2022-08-20T05:54:19.682Z,100210.20
2022-08-20T05:56:47.714Z,100211.40
2022-08-20T05:59:15.512Z,100211.60
2022-08-20T06:01:43.665Z,100206.00
2022-08-20T06:04:29.654Z,100206.60
2022-08-20T06:07:04.483Z,100206.40
2022-08-20T06:09:33.511Z,100208.60
2022-08-20T06:12:06.123Z,100209.20
2022-08-20T06:14:34.598Z,100213.80
2022-08-20T06:17:13.213Z,100212.60
2022-08-20T06:19:44.389Z,100211.00
2022-08-20T06:22:18.323Z,100218.40
2022-08-20T06:24:51.516Z,100221.80
2022-08-20T06:27:20.152Z,100220.40
2022-08-20T06:29:49.585Z,100220.00
2022-08-20T06:32:19.832Z,100223.00
2022-08-20T06:34:56.942Z,100226.00
2022-08-20T06:37:31.385Z,100223.00
2022-08-20T06:40:10.109Z,100229.60
2022-08-20T06:42:45.749Z,100234.60
2022-08-20T06:45:27.366Z,100234.00
2022-08-20T06:47:58.967Z,100227.00
2022-08-20T06:50:42.072Z,100225.60
2022-08-20T06:53:18.959Z,100212.60
2022-08-20T06:55:53.155Z,100222.00
2022-08-20T06:58:36.238Z,100218.80
2022-08-20T07:01:09.839Z,100221.80
2022-08-20T07:03:54.456Z,100225.40
2022-08-20T07:06:25.707Z,100228.80
2022-08-20T07:08:55.876Z,100228.60
2022-08-20T07:11:28.010Z,100230.20
2022-08-20T07:13:58.899Z,100228.60
2022-08-20T07:16:27.408Z,100237.00
2022-08-20T07:18:55.353Z,100245.40
2022-08-20T07:21:23.352Z,100242.40
2022-08-20T07:23:51.266Z,100239.80
2022-08-20T07:26:19.382Z,100239.00
2022-08-20T07:28:47.457Z,100242.20
2022-08-20T07:31:34.910Z,100243.00
2022-08-20T07:34:03.952Z,100239.60
2022-08-20T07:36:32.945Z,100235.00
2022-08-20T07:39:06.063Z,100232.60
2022-08-20T07:41:34.144Z,100231.60
2022-08-20T07:44:02.563Z,100236.20
2022-08-20T07:46:31.597Z,100240.40
2022-08-20T07:48:59.766Z,100237.00
2022-08-20T07:51:28.656Z,100241.80
2022-08-20T07:53:58.423Z,100237.60
2022-08-20T07:56:28.146Z,100239.00
2022-08-20T07:59:00.098Z,100236.80
2022-08-20T08:01:31.880Z,100227.80
2022-08-20T08:04:00.699Z,100224.40
2022-08-20T08:06:31.592Z,100220.20
2022-08-20T08:09:06.775Z,100215.40
2022-08-20T08:11:38.358Z,100216.60
2022-08-20T08:14:09.868Z,100212.80
2022-08-20T08:16:38.226Z,100213.60
2022-08-20T08:19:09.932Z,100218.40
2022-08-20T08:21:37.880Z,100212.40
2022-08-20T08:24:05.679Z,100205.80
2022-08-20T08:26:33.546Z,100197.40
2022-08-20T08:29:01.210Z,100196.60
2022-08-20T08:31:29.337Z,100197.20
2022-08-20T08:33:57.580Z,100195.40
2022-08-20T08:36:26.992Z,100190.40
2022-08-20T08:38:55.928Z,100194.40
2022-08-20T08:41:32.124Z,100192.20
2022-08-20T08:44:28.447Z,100197.60
2022-08-20T08:47:13.851Z,100203.60
2022-08-20T08:49:41.663Z,100205.40
2022-08-20T08:52:14.734Z,100208.20
2022-08-20T08:54:47.621Z,100202.60
2022-08-20T08:57:16.846Z,100205.80
2022-08-20T09:00:03.925Z,100209.80
2022-08-20T09:02:36.326Z,100212.20
2022-08-20T09:05:16.105Z,100215.00
2022-08-20T09:07:49.325Z,100220.00
2022-08-20T09:10:17.597Z,100228.20
2022-08-20T09:12:52.353Z,100227.80
2022-08-20T09:15:21.878Z,100229.40
2022-08-20T09:17:50.754Z,100230.60
2022-08-20T09:20:18.992Z,100230.40
2022-08-20T09:22:46.815Z,100229.20
2022-08-20T09:25:16.636Z,100224.00
2022-08-20T09:27:44.690Z,100224.80
2022-08-20T09:30:17.259Z,100219.60
2022-08-20T09:32:46.557Z,100223.20
2022-08-20T09:35:15.523Z,100218.00
2022-08-20T09:37:43.927Z,100215.00
2022-08-20T09:40:13.255Z,100217.40
2022-08-20T09:42:41.892Z,100209.80
2022-08-20T09:45:11.715Z,100214.40
2022-08-20T09:47:56.425Z,100212.00
2022-08-20T09:50:28.844Z,100208.40
2022-08-20T09:52:59.630Z,100202.60
2022-08-20T09:55:43.287Z,100202.80
2022-08-20T09:58:35.605Z,100199.00
2022-08-20T10:01:13.854Z,100194.20
2022-08-20T10:03:44.531Z,100196.80
2022-08-20T10:06:14.743Z,100201.60
2022-08-20T10:08:44.214Z,100199.00
2022-08-20T10:11:12.644Z,100193.80
2022-08-20T10:13:40.408Z,100184.60
2022-08-20T10:16:08.150Z,100186.00
2022-08-20T10:18:36.815Z,100181.40
2022-08-20T10:21:10.903Z,100182.60
2022-08-20T10:23:38.732Z,100174.00
2022-08-20T10:26:11.899Z,100173.60
2022-08-20T10:28:40.045Z,100173.40
2022-08-20T10:31:12.496Z,100173.80
2022-08-20T10:33:41.827Z,100169.20
2022-08-20T10:36:17.735Z,100167.40
2022-08-20T10:38:46.191Z,100168.40
2022-08-20T10:41:13.985Z,100169.80
2022-08-20T10:43:41.826Z,100174.60
2022-08-20T10:46:09.763Z,100183.60
2022-08-20T10:48:38.832Z,100184.20
2022-08-20T10:51:06.943Z,100185.00
2022-08-20T10:53:35.274Z,100190.40
2022-08-20T10:56:03.446Z,100188.20
2022-08-20T10:58:39.288Z,100188.20
2022-08-20T11:01:08.828Z,100186.80
2022-08-20T11:03:36.626Z,100192.00
2022-08-20T11:06:04.788Z,100187.40
2022-08-20T11:08:34.150Z,100190.40
2022-08-20T11:11:05.819Z,100186.00
2022-08-20T11:13:35.502Z,100183.20
2022-08-20T11:16:04.398Z,100176.80
2022-08-20T11:18:33.124Z,100183.00
2022-08-20T11:21:01.504Z,100172.60
2022-08-20T11:23:30.577Z,100175.40
2022-08-20T11:25:59.221Z,100165.40
2022-08-20T11:28:31.338Z,100169.00
2022-08-20T11:31:01.895Z,100168.40
2022-08-20T11:33:29.851Z,100171.60
2022-08-20T11:35:57.812Z,100170.80
2022-08-20T11:38:26.196Z,100172.00
2022-08-20T11:40:54.097Z,100173.80
2022-08-20T11:43:21.887Z,100169.00
2022-08-20T11:45:55.861Z,100167.00
2022-08-20T11:48:23.970Z,100169.00
2022-08-20T11:50:51.916Z,100169.20
2022-08-20T11:53:19.714Z,100165.80
2022-08-20T11:55:47.979Z,100165.20
2022-08-20T11:58:15.892Z,100168.00
2022-08-20T12:00:43.765Z,100167.40
2022-08-20T12:03:12.182Z,100162.60
2022-08-20T12:05:44.349Z,100170.40
2022-08-20T12:08:26.944Z,100166.60
2022-08-20T12:11:02.227Z,100164.60
2022-08-20T12:13:47.410Z,100165.60
2022-08-20T12:16:20.307Z,100170.60
2022-08-20T12:18:48.999Z,100170.00
2022-08-20T12:21:17.053Z,100169.80
2022-08-20T12:23:45.325Z,100165.20
2022-08-20T12:26:14.055Z,100164.60
2022-08-20T12:28:41.866Z,100159.20
2022-08-20T12:31:09.710Z,100153.80
2022-08-20T12:33:37.629Z,100149.40
2022-08-20T12:36:06.073Z,100145.00
2022-08-20T12:38:33.886Z,100148.00
2022-08-20T12:41:02.620Z,100145.60
2022-08-20T12:43:30.400Z,100146.80
2022-08-20T12:45:58.218Z,100146.00
2022-08-20T12:48:26.081Z,100141.60
2022-08-20T12:50:54.002Z,100145.00
2022-08-20T12:53:21.786Z,100143.40
2022-08-20T12:55:49.612Z,100144.60
2022-08-20T12:58:17.467Z,100142.80
2022-08-20T13:00:50.943Z,100135.80
2022-08-20T13:03:20.143Z,100136.80
2022-08-20T13:05:49.620Z,100135.20
2022-08-20T13:08:19.283Z,100138.60
2022-08-20T13:10:47.775Z,100139.40
2022-08-20T13:13:20.796Z,100135.60
2022-08-20T13:15:50.923Z,100129.40
2022-08-20T13:18:19.871Z,100128.00
2022-08-20T13:20:48.646Z,100124.20
2022-08-20T13:23:17.002Z,100122.60
2022-08-20T13:25:44.876Z,100122.60
2022-08-20T13:28:12.699Z,100115.40
2022-08-20T13:30:41.502Z,100114.20
2022-08-20T13:33:09.845Z,100118.00
2022-08-20T13:35:38.170Z,100120.80
2022-08-20T13:38:06.037Z,100118.00
2022-08-20T13:40:33.984Z,100118.80
2022-08-20T13:43:06.519Z,100116.00
2022-08-20T13:45:37.550Z,100113.20
2022-08-20T13:48:12.429Z,100117.20
2022-08-20T13:50:47.374Z,100115.00
2022-08-20T13:53:16.446Z,100120.20
2022-08-20T13:55:45.151Z,100117.80
2022-08-20T13:58:13.388Z,100126.40
2022-08-20T14:00:41.260Z,100126.40
2022-08-20T14:03:09.021Z,100125.60
2022-08-20T14:05:38.228Z,100127.20
2022-08-20T14:08:11.918Z,100130.60
2022-08-20T14:10:42.595Z,100137.80
2022-08-20T14:13:15.341Z,100142.60
2022-08-20T14:15:45.791Z,100144.80
2022-08-20T14:18:15.052Z,100148.60
2022-08-20T14:20:45.637Z,100151.20
2022-08-20T14:23:15.235Z,100157.00
2022-08-20T14:25:47.327Z,100161.20
2022-08-20T14:28:20.020Z,100164.00
2022-08-20T14:30:52.953Z,100162.00
2022-08-20T14:33:23.811Z,100159.60
2022-08-20T14:35:52.975Z,100162.40
2022-08-20T14:38:20.995Z,100157.40
2022-08-20T14:40:50.481Z,100156.60
2022-08-20T14:43:19.090Z,100155.60
2022-08-20T14:45:46.891Z,100152.60
2022-08-20T14:48:15.139Z,100151.40
2022-08-20T14:50:43.251Z,100148.80
2022-08-20T14:53:10.989Z,100144.40
2022-08-20T14:55:39.091Z,100146.40
2022-08-20T14:58:12.766Z,100145.40
2022-08-20T15:00:42.056Z,100144.60
2022-08-20T15:03:10.289Z,100145.40
2022-08-20T15:05:39.736Z,100142.80
2022-08-20T15:08:10.609Z,100148.20
2022-08-20T15:10:39.837Z,100150.00
2022-08-20T15:13:08.318Z,100148.80
2022-08-20T15:15:36.199Z,100152.40
2022-08-20T15:18:04.090Z,100149.60
2022-08-20T15:20:34.898Z,100150.20
2022-08-20T15:23:04.635Z,100148.40
2022-08-20T15:25:36.928Z,100149.80
2022-08-20T15:28:09.918Z,100150.40
2022-08-20T15:30:41.335Z,100150.20
2022-08-20T15:33:10.696Z,100151.60
2022-08-20T15:35:39.238Z,100145.60
2022-08-20T15:38:07.322Z,100148.40
2022-08-20T15:40:35.612Z,100154.20
2022-08-20T15:43:05.846Z,100150.20
2022-08-20T15:45:35.650Z,100152.80
2022-08-20T15:48:17.887Z,100152.20
2022-08-20T15:51:00.453Z,100146.60
2022-08-20T15:53:46.232Z,100149.20
2022-08-20T15:56:41.415Z,100146.00
2022-08-20T16:00:20.068Z,100147.20
2022-08-20T16:03:14.980Z,100146.60
2022-08-20T16:06:08.338Z,100145.80
2022-08-20T16:09:00.292Z,100139.40
2022-08-20T16:11:36.808Z,100136.40
2022-08-20T16:14:29.108Z,100137.00
2022-08-20T16:17:17.691Z,100137.40
2022-08-20T16:20:11.654Z,100135.00
2022-08-20T16:22:44.983Z,100137.80
2022-08-20T16:25:14.953Z,100140.60
2022-08-20T16:28:06.601Z,100141.20
2022-08-20T16:30:44.862Z,100129.20
2022-08-20T16:33:34.712Z,100137.60
2022-08-20T16:36:15.122Z,100137.40
2022-08-20T16:38:50.178Z,100133.80
2022-08-20T16:41:41.536Z,100130.60
2022-08-20T16:44:20.791Z,100133.20
2022-08-20T16:47:01.337Z,100128.80
2022-08-20T16:49:52.346Z,100132.60
2022-08-20T16:52:20.171Z,100136.00
2022-08-20T16:54:48.003Z,100140.60
2022-08-20T16:57:17.534Z,100138.60
2022-08-20T17:00:19.745Z,100137.20
2022-08-20T17:02:55.469Z,100137.60
2022-08-20T17:05:40.195Z,100139.00
2022-08-20T17:08:15.231Z,100143.00
2022-08-20T17:11:17.286Z,100137.60
2022-08-20T17:13:47.937Z,100136.00
2022-08-20T17:16:21.448Z,100131.80
2022-08-20T17:18:54.142Z,100130.40
2022-08-20T17:21:35.551Z,100130.20
2022-08-20T17:24:07.082Z,100141.40
2022-08-20T17:27:03.350Z,100144.00
2022-08-20T17:29:47.542Z,100145.20
2022-08-20T17:32:22.176Z,100145.80
2022-08-20T17:35:00.394Z,100149.20
2022-08-20T17:37:40.844Z,100155.40
2022-08-20T17:40:27.057Z,100161.00
2022-08-20T17:43:33.530Z,100159.40
2022-08-20T17:46:11.324Z,100159.20
2022-08-20T17:48:48.333Z,100162.60
2022-08-20T17:51:26.558Z,100164.40
2022-08-20T17:54:02.925Z,100162.80
2022-08-20T17:56:36.784Z,100160.20
2022-08-20T17:59:50.773Z,100158.00
2022-08-20T18:02:13.329Z,100159.20
2022-08-20T18:04:41.524Z,100165.80
2022-08-20T18:07:25.070Z,100163.40
2022-08-20T18:09:58.870Z,100165.00
2022-08-20T18:12:34.109Z,100167.20
2022-08-20T18:15:26.025Z,100161.80
2022-08-20T18:18:28.219Z,100159.00
2022-08-20T18:21:20.553Z,100160.80
2022-08-20T18:24:01.532Z,100157.40
2022-08-20T18:27:14.526Z,100157.60
2022-08-20T18:29:46.636Z,100157.20
2022-08-20T18:32:37.722Z,100159.20
2022-08-20T18:35:11.469Z,100164.60
2022-08-20T18:37:40.282Z,100160.20
2022-08-20T18:40:33.192Z,100161.20
2022-08-20T18:43:16.005Z,100162.20
2022-08-20T18:45:43.871Z,100167.00
2022-08-20T18:48:24.136Z,100162.80
2022-08-20T18:50:56.605Z,100171.00
2022-08-20T18:53:34.362Z,100170.00
2022-08-20T18:56:11.208Z,100173.40
2022-08-20T18:59:21.585Z,100174.80
2022-08-20T19:01:49.909Z,100179.80
2022-08-20T19:04:38.061Z,100179.80
2022-08-20T19:07:11.347Z,100182.20
2022-08-20T19:10:28.314Z,100191.60
2022-08-20T19:13:16.238Z,100193.60
2022-08-20T19:15:56.772Z,100195.80
2022-08-20T19:18:37.822Z,100193.20
2022-08-20T19:21:06.168Z,100191.20
2022-08-20T19:23:51.697Z,100190.00
2022-08-20T19:26:25.908Z,100190.00
2022-08-20T19:29:10.601Z,100187.40
2022-08-20T19:31:38.714Z,100182.80
2022-08-20T19:34:20.136Z,100182.20
2022-08-20T19:37:10.074Z,100180.20
2022-08-20T19:39:54.027Z,100180.60
2022-08-20T19:42:33.315Z,100175.40
2022-08-20T19:45:07.797Z,100170.40
2022-08-20T19:47:53.000Z,100166.00
2022-08-20T19:50:39.587Z,100164.80
2022-08-20T19:53:30.189Z,100173.20
2022-08-20T19:56:16.582Z,100171.60
2022-08-20T19:58:45.706Z,100170.60
2022-08-20T20:01:21.577Z,100164.20
2022-08-20T20:04:17.602Z,100161.40
2022-08-20T20:06:48.581Z,100164.40
2022-08-20T20:09:29.586Z,100164.20
2022-08-20T20:12:22.566Z,100163.80
2022-08-20T20:14:53.917Z,100160.60
2022-08-20T20:17:28.982Z,100157.80
2022-08-20T20:20:00.722Z,100154.20
2022-08-20T20:22:34.330Z,100155.40
2022-08-20T20:25:02.744Z,100155.80
2022-08-20T20:27:32.230Z,100156.20
2022-08-20T20:30:11.800Z,100150.60
2022-08-20T20:32:44.075Z,100149.60
2022-08-20T20:35:28.113Z,100147.20
2022-08-20T20:38:23.925Z,100151.20
2022-08-20T20:40:56.994Z,100155.60
2022-08-20T20:43:38.349Z,100156.60
2022-08-20T20:46:24.485Z,100162.00
2022-08-20T20:49:02.061Z,100160.80
2022-08-20T20:51:39.431Z,100158.80
2022-08-20T20:54:29.311Z,100152.40
2022-08-20T20:57:07.672Z,100147.20
2022-08-20T20:59:36.702Z,100145.80
2022-08-20T21:02:04.907Z,100141.20
2022-08-20T21:04:33.131Z,100138.00
2022-08-20T21:07:07.808Z,100142.40
2022-08-20T21:09:39.267Z,100143.20
2022-08-20T21:12:09.714Z,100147.00
2022-08-20T21:14:37.800Z,100148.20
2022-08-20T21:17:09.814Z,100146.80
2022-08-20T21:19:41.027Z,100149.00
2022-08-20T21:22:13.612Z,100143.00
2022-08-20T21:24:41.617Z,100156.20
2022-08-20T21:27:09.726Z,100156.60
2022-08-20T21:29:40.508Z,100159.80
2022-08-20T21:32:08.620Z,100159.40
2022-08-20T21:34:40.319Z,100156.60
2022-08-20T21:37:08.138Z,100155.20
2022-08-20T21:39:36.301Z,100155.40
2022-08-20T21:42:21.019Z,100152.40
2022-08-20T21:44:58.749Z,100153.80
2022-08-20T21:47:28.414Z,100152.60
2022-08-20T21:49:56.346Z,100147.60
2022-08-20T21:52:24.264Z,100145.60
2022-08-20T21:54:53.240Z,100147.40
2022-08-20T21:57:27.974Z,100147.60
2022-08-20T21:59:57.707Z,100143.20
2022-08-20T22:02:26.177Z,100146.80
2022-08-20T22:04:54.666Z,100145.80
2022-08-20T22:07:22.631Z,100147.80
2022-08-20T22:09:50.548Z,100150.20
2022-08-20T22:12:22.053Z,100148.00
2022-08-20T22:14:50.974Z,100150.40
2022-08-20T22:17:19.451Z,100153.40
2022-08-20T22:19:47.372Z,100153.20
2022-08-20T22:22:16.109Z,100151.00
2022-08-20T22:24:45.734Z,100156.60
2022-08-20T22:27:14.612Z,100158.80
2022-08-20T22:29:42.651Z,100163.60
2022-08-20T22:32:11.067Z,100162.80
2022-08-20T22:34:38.970Z,100163.20
2022-08-20T22:37:07.401Z,100164.00
2022-08-20T22:39:35.345Z,100168.20
2022-08-20T22:42:03.638Z,100167.40
2022-08-20T22:44:31.601Z,100173.80
2022-08-20T22:47:05.780Z,100175.80
2022-08-20T22:49:36.815Z,100180.60
2022-08-20T22:52:05.744Z,100180.20
2022-08-20T22:54:35.586Z,100177.60
2022-08-20T22:57:04.329Z,100183.80
2022-08-20T22:59:38.782Z,100182.00
2022-08-20T23:02:20.813Z,100184.80
2022-08-20T23:04:48.637Z,100183.20
2022-08-20T23:07:19.753Z,100186.60
2022-08-20T23:09:48.053Z,100189.80
2022-08-20T23:12:16.114Z,100192.80
2022-08-20T23:14:44.022Z,100193.40
2022-08-20T23:17:18.062Z,100201.40
2022-08-20T23:19:48.382Z,100201.00
2022-08-20T23:22:17.873Z,100202.80
2022-08-20T23:24:46.713Z,100206.40
2022-08-20T23:27:18.269Z,100206.00
2022-08-20T23:29:47.420Z,100206.60
2022-08-20T23:32:15.349Z,100210.00
2022-08-20T23:34:43.720Z,100208.40
2022-08-20T23:37:12.819Z,100212.00
2022-08-20T23:39:41.011Z,100209.00
2022-08-20T23:42:11.089Z,100211.00
2022-08-20T23:44:39.634Z,100215.20
2022-08-20T23:47:08.465Z,100204.20
2022-08-20T23:49:36.276Z,100203.60
2022-08-20T23:52:04.335Z,100206.40
2022-08-20T23:54:32.641Z,100202.60
2022-08-20T23:57:00.473Z,100205.60
2022-08-20T23:59:28.701Z,100202.80
